Main page
METAR-TAF:

METAR-TAF

Airports :

Bodrum, Turkey

Milas–Bodrum Airport

latitude: 37-14-53N, longitude: 027-40-55E, elevation: 6 m

Current weather observation

The report was made 34 minutes ago, at 09:20 UTC
Wind 10 kt from the Southwest
Temperature 20°C
Humidity 73%
Pressure 1017 hPa
Visibility 10 km or more
no clouds below 1500 m and no cumulonimbus

METAR: LTFE 190920Z 23010KT CAVOK 20/15 Q1017 NOSIG RMK RWY10 24010KT

Time: 12:54 (09:54 UTC)

Forecast

The report was made 5 hours and 14 minutes ago, at 04:40 UTC
Forecast valid from 19 at 06 UTC to 20 at 06 UTC
Wind 2 kt from variable directions
Visibility 10 km or more
no clouds below 1500 m and no cumulonimbus
Becoming
from 19 at 08 UTC to 19 at 11 UTC
Wind 14 kt from the West/Southwest
Few clouds at a height of 3500 ft
Becoming
from 19 at 15 UTC to 19 at 18 UTC
Wind 2 kt from variable directions
Visibility 10 km or more
no clouds below 1500 m and no cumulonimbus

TAF: LTFE 190440Z 1906/2006 VRB02KT CAVOK BECMG 1908/1911 24014KT FEW035 BECMG 1915/1918 VRB02KT CAVOK

Weather observations and forecasts of more than 4000 airports (METAR and TAF reports).

The available stations are represented by yellow and red dots on the map.

Hover mouse over dot to see the name of the station.

Then click to see weather observations and forecasts.

To change the map : click on the green buttons with a black cross to zoom in, on the green button with a dash to zoom out, or on the green arrows for adjacent maps.


METAR-TAF: